VXP1194 KJQF-KHVN
Flight info
| Callsign | VXP1194 |
|---|---|
| Flight time | N/A |
| Altitude | 37000 |
| Route | BARMY5 TYI Q64 KALDA SARDI1 |
| Aircraft | B738/M-SDE2E3FGHIRWXY/LB1 |
Departure
| Time | 2026-04-20 23:03 |
|---|---|
| Airport | Concord-Padgett Regional Airport (KJQF) |
Arrival
| Time | N/A |
|---|---|
| Airport | Tweed New Haven Airport (KHVN) |
| Time | Latitude | Longitude | Altitude | Speed | Heading |
|---|---|---|---|---|---|
| 2026-04-20 22:38 | 35.37989 | -80.71333 | 666 ft | 0 kts | 327° |
| 2026-04-20 22:56 | 35.37973 | -80.71320 | 664 ft | 3 kts | 312° |
| 2026-04-20 22:56 | 35.37960 | -80.71297 | 666 ft | 3 kts | 294° |
| 2026-04-20 22:56 | 35.37954 | -80.71278 | 663 ft | 1 kts | 295° |
| 2026-04-20 22:56 | 35.37953 | -80.71275 | 663 ft | 0 kts | 295° |
| 2026-04-20 22:58 | 35.37953 | -80.71276 | 663 ft | 0 kts | 295° |
| 2026-04-20 22:58 | 35.37974 | -80.71285 | 663 ft | 5 kts | 11° |
| 2026-04-20 22:59 | 35.38010 | -80.71275 | 666 ft | 5 kts | 12° |
| 2026-04-20 22:59 | 35.38046 | -80.71267 | 666 ft | 5 kts | 9° |
| 2026-04-20 22:59 | 35.38078 | -80.71250 | 666 ft | 5 kts | 51° |
| 2026-04-20 22:59 | 35.38070 | -80.71216 | 668 ft | 5 kts | 157° |
| 2026-04-20 23:00 | 35.38030 | -80.71220 | 667 ft | 7 kts | 189° |
| 2026-04-20 23:00 | 35.37968 | -80.71233 | 667 ft | 11 kts | 190° |
| 2026-04-20 23:00 | 35.37878 | -80.71254 | 666 ft | 14 kts | 191° |
| 2026-04-20 23:00 | 35.37814 | -80.71259 | 665 ft | 6 kts | 152° |
| 2026-04-20 23:01 | 35.37803 | -80.71241 | 666 ft | 0 kts | 110° |
| 2026-04-20 23:01 | 35.37795 | -80.71209 | 666 ft | 7 kts | 104° |
| 2026-04-20 23:01 | 35.37813 | -80.71135 | 667 ft | 13 kts | 28° |
| 2026-04-20 23:02 | 35.37848 | -80.71122 | 667 ft | 0 kts | 10° |
| 2026-04-20 23:02 | 35.37875 | -80.71116 | 666 ft | 25 kts | 10° |
| 2026-04-20 23:02 | 35.38335 | -80.71013 | 667 ft | 107 kts | 10° |
| 2026-04-20 23:02 | 35.39311 | -80.70823 | 692 ft | 173 kts | 8° |
| 2026-04-20 23:03 | 35.40556 | -80.70577 | 1427 ft | 188 kts | 8° |
| 2026-04-20 23:03 | 35.41822 | -80.69881 | 2060 ft | 220 kts | 36° |
| 2026-04-20 23:03 | 35.42794 | -80.68337 | 2844 ft | 234 kts | 60° |
| 2026-04-20 23:03 | 35.43254 | -80.66476 | 4055 ft | 225 kts | 78° |
| 2026-04-20 23:04 | 35.43279 | -80.64540 | 4984 ft | 233 kts | 92° |
| 2026-04-20 23:04 | 35.43015 | -80.62492 | 5235 ft | 258 kts | 100° |
| 2026-04-20 23:04 | 35.42511 | -80.60263 | 5520 ft | 275 kts | 114° |
| 2026-04-20 23:04 | 35.41301 | -80.58512 | 6288 ft | 274 kts | 148° |
| 2026-04-20 23:05 | 35.39613 | -80.57354 | 6753 ft | 288 kts | 154° |
| 2026-04-20 23:05 | 35.37825 | -80.56184 | 7455 ft | 292 kts | 153° |
| 2026-04-20 23:05 | 35.36048 | -80.54953 | 8260 ft | 295 kts | 152° |
| 2026-04-20 23:05 | 35.34281 | -80.53657 | 9030 ft | 299 kts | 152° |
| 2026-04-20 23:06 | 35.32499 | -80.52297 | 9759 ft | 304 kts | 152° |
| 2026-04-20 23:06 | 35.30699 | -80.50895 | 10412 ft | 312 kts | 151° |
| 2026-04-20 23:06 | 35.28797 | -80.49409 | 10595 ft | 336 kts | 151° |
| 2026-04-20 23:06 | 35.26922 | -80.47536 | 10742 ft | 364 kts | 130° |
| 2026-04-20 23:07 | 35.25807 | -80.44758 | 11198 ft | 376 kts | 102° |
| 2026-04-20 23:07 | 35.25736 | -80.41585 | 11870 ft | 375 kts | 79° |
| 2026-04-20 23:07 | 35.26162 | -80.38436 | 12641 ft | 376 kts | 77° |
| 2026-04-20 23:07 | 35.26620 | -80.35278 | 13368 ft | 379 kts | 76° |
| 2026-04-20 23:08 | 35.27078 | -80.32083 | 14088 ft | 382 kts | 76° |
| 2026-04-20 23:08 | 35.27527 | -80.28857 | 14677 ft | 387 kts | 76° |
| 2026-04-20 23:08 | 35.27966 | -80.25598 | 15263 ft | 391 kts | 76° |
| 2026-04-20 23:08 | 35.28402 | -80.22291 | 15899 ft | 395 kts | 76° |
| 2026-04-20 23:09 | 35.28836 | -80.18965 | 16503 ft | 399 kts | 76° |
| 2026-04-20 23:09 | 35.29271 | -80.15617 | 17099 ft | 403 kts | 76° |
| 2026-04-20 23:09 | 35.29717 | -80.12188 | 17678 ft | 408 kts | 75° |
| 2026-04-20 23:09 | 35.30212 | -80.08803 | 18287 ft | 407 kts | 70° |
| 2026-04-20 23:10 | 35.31051 | -80.05512 | 18839 ft | 406 kts | 63° |
| 2026-04-20 23:10 | 35.32059 | -80.02273 | 19341 ft | 408 kts | 61° |
| 2026-04-20 23:10 | 35.33100 | -79.99017 | 19849 ft | 412 kts | 62° |
| 2026-04-20 23:10 | 35.34122 | -79.95730 | 20390 ft | 415 kts | 62° |
| 2026-04-20 23:11 | 35.35122 | -79.92399 | 20913 ft | 419 kts | 62° |
| 2026-04-20 23:11 | 35.36112 | -79.89020 | 21382 ft | 423 kts | 63° |
| 2026-04-20 23:11 | 35.37103 | -79.85610 | 21847 ft | 427 kts | 62° |
| 2026-04-20 23:11 | 35.38098 | -79.82179 | 22309 ft | 430 kts | 62° |
| 2026-04-20 23:12 | 35.39107 | -79.78712 | 22799 ft | 433 kts | 62° |
| 2026-04-20 23:12 | 35.40125 | -79.75214 | 23238 ft | 437 kts | 62° |
| 2026-04-20 23:12 | 35.41138 | -79.71731 | 23695 ft | 441 kts | 62° |
| 2026-04-20 23:12 | 35.42180 | -79.68137 | 24090 ft | 443 kts | 62° |
| 2026-04-20 23:13 | 35.43213 | -79.64571 | 24505 ft | 445 kts | 62° |
| 2026-04-20 23:13 | 35.44236 | -79.61030 | 24899 ft | 448 kts | 62° |
| 2026-04-20 23:13 | 35.45279 | -79.57418 | 25275 ft | 450 kts | 62° |
| 2026-04-20 23:13 | 35.46325 | -79.53790 | 25665 ft | 452 kts | 62° |
| 2026-04-20 23:14 | 35.47374 | -79.50147 | 26041 ft | 455 kts | 62° |
| 2026-04-20 23:14 | 35.48428 | -79.46480 | 26409 ft | 457 kts | 62° |
| 2026-04-20 23:14 | 35.49488 | -79.42791 | 26769 ft | 459 kts | 62° |
| 2026-04-20 23:14 | 35.50552 | -79.39084 | 27091 ft | 462 kts | 62° |
| 2026-04-20 23:15 | 35.51619 | -79.35358 | 27396 ft | 465 kts | 62° |
| 2026-04-20 23:15 | 35.52696 | -79.31592 | 27766 ft | 467 kts | 62° |
| 2026-04-20 23:15 | 35.53773 | -79.27822 | 28105 ft | 469 kts | 62° |
| 2026-04-20 23:15 | 35.54851 | -79.24043 | 28417 ft | 471 kts | 62° |
| 2026-04-20 23:16 | 35.55936 | -79.20233 | 28733 ft | 474 kts | 62° |
| 2026-04-20 23:16 | 35.57023 | -79.16407 | 29054 ft | 475 kts | 62° |
| 2026-04-20 23:16 | 35.58116 | -79.12564 | 29377 ft | 477 kts | 62° |
| 2026-04-20 23:16 | 35.59196 | -79.08760 | 29650 ft | 480 kts | 62° |
| 2026-04-20 23:17 | 35.60297 | -79.04883 | 29958 ft | 482 kts | 62° |
| 2026-04-20 23:17 | 35.61410 | -79.00981 | 30168 ft | 485 kts | 62° |
| 2026-04-20 23:17 | 35.62527 | -78.97063 | 30394 ft | 488 kts | 62° |
| 2026-04-20 23:17 | 35.63648 | -78.93123 | 30673 ft | 488 kts | 62° |
| 2026-04-20 23:18 | 35.64765 | -78.89181 | 30997 ft | 487 kts | 62° |
| 2026-04-20 23:18 | 35.65880 | -78.85242 | 31271 ft | 488 kts | 62° |
| 2026-04-20 23:18 | 35.66994 | -78.81299 | 31502 ft | 489 kts | 62° |
| 2026-04-20 23:18 | 35.68113 | -78.77340 | 31756 ft | 490 kts | 62° |
| 2026-04-20 23:19 | 35.69215 | -78.73429 | 32037 ft | 490 kts | 62° |
| 2026-04-20 23:19 | 35.70345 | -78.69417 | 32304 ft | 491 kts | 62° |
| 2026-04-20 23:19 | 35.71448 | -78.65493 | 32551 ft | 493 kts | 63° |
| 2026-04-20 23:19 | 35.72570 | -78.61500 | 32766 ft | 494 kts | 63° |
| 2026-04-20 23:20 | 35.73689 | -78.57509 | 33075 ft | 493 kts | 63° |
| 2026-04-20 23:20 | 35.74803 | -78.53522 | 33381 ft | 493 kts | 63° |
| 2026-04-20 23:20 | 35.75917 | -78.49538 | 33593 ft | 494 kts | 63° |
| 2026-04-20 23:20 | 35.77040 | -78.45517 | 33800 ft | 495 kts | 63° |
| 2026-04-20 23:21 | 35.78157 | -78.41508 | 34062 ft | 495 kts | 63° |
| 2026-04-20 23:21 | 35.79274 | -78.37493 | 34318 ft | 495 kts | 63° |
| 2026-04-20 23:21 | 35.80387 | -78.33486 | 34502 ft | 496 kts | 63° |
| 2026-04-20 23:21 | 35.81504 | -78.29462 | 34656 ft | 497 kts | 63° |
| 2026-04-20 23:22 | 35.82623 | -78.25425 | 34826 ft | 498 kts | 64° |
| 2026-04-20 23:22 | 35.83737 | -78.21395 | 35021 ft | 498 kts | 64° |
| 2026-04-20 23:22 | 35.84853 | -78.17356 | 35209 ft | 498 kts | 64° |
| 2026-04-20 23:22 | 35.85970 | -78.13307 | 35382 ft | 499 kts | 64° |
| 2026-04-20 23:23 | 35.87084 | -78.09260 | 35543 ft | 499 kts | 64° |
| 2026-04-20 23:23 | 35.88196 | -78.05215 | 35729 ft | 499 kts | 65° |
| 2026-04-20 23:23 | 35.89296 | -78.01209 | 35894 ft | 499 kts | 65° |
| 2026-04-20 23:23 | 35.90409 | -77.97149 | 36090 ft | 500 kts | 65° |
| 2026-04-20 23:24 | 35.91510 | -77.93126 | 36281 ft | 500 kts | 66° |
| 2026-04-20 23:24 | 35.92622 | -77.89059 | 36358 ft | 502 kts | 66° |
| 2026-04-20 23:24 | 35.93739 | -77.84970 | 36481 ft | 503 kts | 66° |
| 2026-04-20 23:24 | 35.94857 | -77.80866 | 36610 ft | 504 kts | 66° |
| 2026-04-20 23:25 | 35.95972 | -77.76769 | 36773 ft | 504 kts | 66° |
| 2026-04-20 23:25 | 35.97099 | -77.72670 | 36945 ft | 503 kts | 64° |
| 2026-04-20 23:25 | 35.98691 | -77.68908 | 36998 ft | 490 kts | 46° |
| 2026-04-20 23:25 | 36.00919 | -77.65782 | 37168 ft | 482 kts | 40° |
| 2026-04-20 23:26 | 36.05561 | -77.59755 | 37206 ft | 486 kts | 40° |
| 2026-04-20 23:26 | 36.10196 | -77.53644 | 37266 ft | 488 kts | 41° |
| 2026-04-20 23:27 | 36.14815 | -77.47442 | 37228 ft | 491 kts | 41° |
| 2026-04-20 23:27 | 36.19440 | -77.41192 | 37229 ft | 492 kts | 41° |
| 2026-04-20 23:28 | 36.24029 | -77.34985 | 37228 ft | 492 kts | 41° |
| 2026-04-20 23:28 | 36.28638 | -77.28747 | 37238 ft | 490 kts | 41° |
| 2026-04-20 23:29 | 36.33310 | -77.22647 | 37245 ft | 484 kts | 37° |
| 2026-04-20 23:29 | 36.38293 | -77.17069 | 37237 ft | 480 kts | 35° |
| 2026-04-20 23:30 | 36.43305 | -77.11615 | 37237 ft | 478 kts | 35° |
| 2026-04-20 23:30 | 36.48272 | -77.06124 | 37232 ft | 478 kts | 36° |
| 2026-04-20 23:31 | 36.53202 | -77.00600 | 37278 ft | 477 kts | 36° |
| 2026-04-20 23:31 | 36.58132 | -76.95047 | 37269 ft | 478 kts | 36° |
| 2026-04-20 23:32 | 36.63018 | -76.89533 | 37265 ft | 477 kts | 36° |
| 2026-04-20 23:32 | 36.67931 | -76.83981 | 37241 ft | 477 kts | 36° |
| 2026-04-20 23:33 | 36.72853 | -76.78413 | 37265 ft | 478 kts | 36° |
| 2026-04-20 23:33 | 36.77781 | -76.72828 | 37265 ft | 479 kts | 36° |
| 2026-04-20 23:34 | 36.82714 | -76.67226 | 37265 ft | 480 kts | 36° |
| 2026-04-20 23:34 | 36.87621 | -76.61644 | 37264 ft | 481 kts | 36° |
| 2026-04-20 23:35 | 36.95034 | -76.53189 | 37294 ft | 481 kts | 36° |
| 2026-04-20 23:36 | 36.99984 | -76.47531 | 37243 ft | 482 kts | 36° |
| 2026-04-20 23:36 | 37.04929 | -76.41869 | 37251 ft | 482 kts | 36° |
| 2026-04-20 23:37 | 37.09871 | -76.36200 | 37247 ft | 482 kts | 36° |
| 2026-04-20 23:37 | 37.14814 | -76.30519 | 37248 ft | 482 kts | 36° |
| 2026-04-20 23:38 | 37.19723 | -76.24867 | 37257 ft | 482 kts | 36° |
| 2026-04-20 23:38 | 37.24665 | -76.19166 | 37260 ft | 482 kts | 36° |
| 2026-04-20 23:39 | 37.29596 | -76.13466 | 37267 ft | 482 kts | 37° |